APZ706 RKSI-RKPK
Flight info
| Callsign | APZ706 |
|---|---|
| Flight time | 0h 49m |
| Altitude | 23000 |
| Route | OSPOT2E OSPOT Y782 TGU Z83 MASTA KEVOX3 |
| Aircraft | B738/M-SDE2E3FGHIRWXY/LB1 |
Departure
| Time | 2026-05-04 13:29 |
|---|---|
| Airport | Incheon International Airport (RKSI) |
Arrival
| Time | 2026-05-04 14:18 |
|---|---|
| Airport | Gimhae International Airport (RKPK) |
| Time | Latitude | Longitude | Altitude | Speed | Heading |
|---|---|---|---|---|---|
| 2026-05-04 13:09 | 37.45096 | 126.44531 | 32 ft | 0 kts | 141° |
| 2026-05-04 13:18 | 37.45104 | 126.44522 | 32 ft | 4 kts | 140° |
| 2026-05-04 13:18 | 37.45124 | 126.44500 | 32 ft | 4 kts | 137° |
| 2026-05-04 13:18 | 37.45144 | 126.44478 | 31 ft | 3 kts | 141° |
| 2026-05-04 13:18 | 37.45160 | 126.44460 | 29 ft | 4 kts | 123° |
| 2026-05-04 13:19 | 37.45164 | 126.44435 | 29 ft | 4 kts | 58° |
| 2026-05-04 13:19 | 37.45153 | 126.44414 | 30 ft | 0 kts | 54° |
| 2026-05-04 13:21 | 37.45174 | 126.44451 | 29 ft | 12 kts | 54° |
| 2026-05-04 13:21 | 37.45251 | 126.44588 | 31 ft | 24 kts | 54° |
| 2026-05-04 13:22 | 37.45343 | 126.44751 | 32 ft | 23 kts | 54° |
| 2026-05-04 13:22 | 37.45433 | 126.44910 | 32 ft | 22 kts | 56° |
| 2026-05-04 13:22 | 37.45520 | 126.45064 | 32 ft | 21 kts | 54° |
| 2026-05-04 13:22 | 37.45606 | 126.45213 | 32 ft | 21 kts | 54° |
| 2026-05-04 13:23 | 37.45684 | 126.45351 | 32 ft | 15 kts | 54° |
| 2026-05-04 13:23 | 37.45656 | 126.45460 | 32 ft | 15 kts | 144° |
| 2026-05-04 13:23 | 37.45574 | 126.45533 | 32 ft | 14 kts | 144° |
| 2026-05-04 13:23 | 37.45497 | 126.45602 | 29 ft | 13 kts | 144° |
| 2026-05-04 13:24 | 37.45422 | 126.45669 | 32 ft | 13 kts | 144° |
| 2026-05-04 13:24 | 37.45349 | 126.45734 | 30 ft | 13 kts | 144° |
| 2026-05-04 13:24 | 37.45295 | 126.45814 | 32 ft | 12 kts | 97° |
| 2026-05-04 13:25 | 37.45380 | 126.45991 | 31 ft | 12 kts | 54° |
| 2026-05-04 13:25 | 37.45432 | 126.46066 | 31 ft | 11 kts | 18° |
| 2026-05-04 13:25 | 37.45477 | 126.46040 | 31 ft | 0 kts | 326° |
| 2026-05-04 13:28 | 37.45478 | 126.46039 | 31 ft | 3 kts | 326° |
| 2026-05-04 13:28 | 37.45686 | 126.45854 | 32 ft | 74 kts | 324° |
| 2026-05-04 13:28 | 37.46303 | 126.45304 | 32 ft | 140 kts | 325° |
| 2026-05-04 13:29 | 37.47204 | 126.44447 | 300 ft | 172 kts | 323° |
| 2026-05-04 13:29 | 37.48216 | 126.43591 | 1066 ft | 179 kts | 325° |
| 2026-05-04 13:29 | 37.49270 | 126.42742 | 1955 ft | 182 kts | 324° |
| 2026-05-04 13:29 | 37.50379 | 126.41826 | 2530 ft | 202 kts | 324° |
| 2026-05-04 13:30 | 37.51634 | 126.40806 | 2809 ft | 224 kts | 325° |
| 2026-05-04 13:30 | 37.52964 | 126.39725 | 3447 ft | 230 kts | 325° |
| 2026-05-04 13:30 | 37.54322 | 126.38613 | 4236 ft | 234 kts | 325° |
| 2026-05-04 13:30 | 37.55696 | 126.37501 | 5127 ft | 235 kts | 329° |
| 2026-05-04 13:31 | 37.57280 | 126.36883 | 5706 ft | 255 kts | 356° |
| 2026-05-04 13:31 | 37.59056 | 126.37360 | 6339 ft | 270 kts | 25° |
| 2026-05-04 13:31 | 37.60513 | 126.38893 | 7121 ft | 279 kts | 53° |
| 2026-05-04 13:31 | 37.61262 | 126.41157 | 7954 ft | 285 kts | 81° |
| 2026-05-04 13:32 | 37.61080 | 126.43646 | 8771 ft | 291 kts | 110° |
| 2026-05-04 13:32 | 37.59993 | 126.45801 | 9577 ft | 295 kts | 132° |
| 2026-05-04 13:32 | 37.58569 | 126.47592 | 10310 ft | 301 kts | 136° |
| 2026-05-04 13:32 | 37.56989 | 126.49414 | 10568 ft | 324 kts | 137° |
| 2026-05-04 13:33 | 37.55252 | 126.51382 | 10757 ft | 347 kts | 138° |
| 2026-05-04 13:33 | 37.53402 | 126.53490 | 10961 ft | 369 kts | 137° |
| 2026-05-04 13:33 | 37.51478 | 126.55707 | 11496 ft | 377 kts | 137° |
| 2026-05-04 13:33 | 37.49535 | 126.57969 | 12208 ft | 381 kts | 137° |
| 2026-05-04 13:34 | 37.47587 | 126.60251 | 12951 ft | 383 kts | 137° |
| 2026-05-04 13:34 | 37.45631 | 126.62554 | 13664 ft | 387 kts | 137° |
| 2026-05-04 13:34 | 37.43684 | 126.64853 | 14282 ft | 391 kts | 136° |
| 2026-05-04 13:34 | 37.41678 | 126.67212 | 14897 ft | 395 kts | 137° |
| 2026-05-04 13:35 | 37.39596 | 126.69494 | 15524 ft | 399 kts | 139° |
| 2026-05-04 13:35 | 37.35355 | 126.74102 | 16735 ft | 406 kts | 138° |
| 2026-05-04 13:35 | 37.33235 | 126.76499 | 17317 ft | 410 kts | 137° |
| 2026-05-04 13:36 | 37.31156 | 126.78908 | 17905 ft | 414 kts | 136° |
| 2026-05-04 13:36 | 37.29038 | 126.81400 | 18466 ft | 418 kts | 136° |
| 2026-05-04 13:36 | 37.26910 | 126.83926 | 18999 ft | 421 kts | 136° |
| 2026-05-04 13:36 | 37.24770 | 126.86476 | 19518 ft | 424 kts | 136° |
| 2026-05-04 13:37 | 37.22616 | 126.89043 | 20041 ft | 427 kts | 136° |
| 2026-05-04 13:37 | 37.20476 | 126.91592 | 20541 ft | 431 kts | 136° |
| 2026-05-04 13:37 | 37.18293 | 126.94189 | 21044 ft | 434 kts | 136° |
| 2026-05-04 13:37 | 37.16836 | 126.95920 | 21375 ft | 436 kts | 136° |
| 2026-05-04 13:38 | 37.13820 | 126.99358 | 22023 ft | 438 kts | 139° |
| 2026-05-04 13:38 | 37.11484 | 127.01808 | 22500 ft | 438 kts | 140° |
| 2026-05-04 13:38 | 37.09158 | 127.04306 | 22857 ft | 444 kts | 138° |
| 2026-05-04 13:38 | 37.06878 | 127.06878 | 23122 ft | 448 kts | 137° |
| 2026-05-04 13:39 | 37.04579 | 127.09580 | 23109 ft | 455 kts | 136° |
| 2026-05-04 13:39 | 37.02285 | 127.12351 | 23109 ft | 456 kts | 135° |
| 2026-05-04 13:39 | 37.00019 | 127.15124 | 23097 ft | 454 kts | 135° |
| 2026-05-04 13:39 | 36.97787 | 127.17862 | 23093 ft | 453 kts | 135° |
| 2026-05-04 13:40 | 36.96296 | 127.19690 | 23090 ft | 453 kts | 135° |
| 2026-05-04 13:40 | 36.94032 | 127.22457 | 23091 ft | 453 kts | 135° |
| 2026-05-04 13:40 | 36.91771 | 127.25214 | 23084 ft | 453 kts | 135° |
| 2026-05-04 13:40 | 36.89513 | 127.27961 | 23081 ft | 453 kts | 135° |
| 2026-05-04 13:41 | 36.86517 | 127.31601 | 23087 ft | 453 kts | 135° |
| 2026-05-04 13:41 | 36.84993 | 127.33450 | 23088 ft | 453 kts | 135° |
| 2026-05-04 13:41 | 36.82751 | 127.36174 | 23092 ft | 453 kts | 135° |
| 2026-05-04 13:42 | 36.78280 | 127.41660 | 23096 ft | 453 kts | 135° |
| 2026-05-04 13:42 | 36.76029 | 127.44428 | 23098 ft | 452 kts | 135° |
| 2026-05-04 13:42 | 36.73784 | 127.47182 | 23106 ft | 452 kts | 135° |
| 2026-05-04 13:42 | 36.71563 | 127.49899 | 23105 ft | 452 kts | 135° |
| 2026-05-04 13:43 | 36.69309 | 127.52655 | 23107 ft | 452 kts | 135° |
| 2026-05-04 13:43 | 36.67064 | 127.55397 | 23106 ft | 452 kts | 135° |
| 2026-05-04 13:43 | 36.64813 | 127.58147 | 23099 ft | 452 kts | 135° |
| 2026-05-04 13:43 | 36.62526 | 127.60769 | 23092 ft | 452 kts | 142° |
| 2026-05-04 13:44 | 36.59963 | 127.63046 | 23100 ft | 452 kts | 146° |
| 2026-05-04 13:44 | 36.57351 | 127.65223 | 23090 ft | 452 kts | 147° |
| 2026-05-04 13:44 | 36.54716 | 127.67383 | 23092 ft | 452 kts | 147° |
| 2026-05-04 13:44 | 36.52089 | 127.69541 | 23082 ft | 453 kts | 146° |
| 2026-05-04 13:45 | 36.49466 | 127.71713 | 23093 ft | 453 kts | 146° |
| 2026-05-04 13:45 | 36.46848 | 127.73899 | 23088 ft | 453 kts | 146° |
| 2026-05-04 13:45 | 36.44239 | 127.76090 | 23084 ft | 453 kts | 146° |
| 2026-05-04 13:45 | 36.41649 | 127.78271 | 23082 ft | 454 kts | 146° |
| 2026-05-04 13:46 | 36.39028 | 127.80480 | 23084 ft | 454 kts | 146° |
| 2026-05-04 13:46 | 36.36413 | 127.82684 | 23091 ft | 454 kts | 146° |
| 2026-05-04 13:46 | 36.33792 | 127.84892 | 23093 ft | 454 kts | 146° |
| 2026-05-04 13:46 | 36.31178 | 127.87090 | 23097 ft | 455 kts | 146° |
| 2026-05-04 13:47 | 36.28581 | 127.89272 | 23092 ft | 455 kts | 146° |
| 2026-05-04 13:47 | 36.25954 | 127.91478 | 23086 ft | 455 kts | 146° |
| 2026-05-04 13:47 | 36.23321 | 127.93686 | 23092 ft | 452 kts | 146° |
| 2026-05-04 13:47 | 36.20764 | 127.95830 | 23072 ft | 436 kts | 146° |
| 2026-05-04 13:48 | 36.18306 | 127.97888 | 23084 ft | 428 kts | 147° |
| 2026-05-04 13:48 | 36.15871 | 127.99926 | 22856 ft | 418 kts | 147° |
| 2026-05-04 13:48 | 36.13475 | 128.01929 | 22446 ft | 413 kts | 147° |
| 2026-05-04 13:48 | 36.11090 | 128.03921 | 21910 ft | 411 kts | 146° |
| 2026-05-04 13:49 | 36.08724 | 128.05895 | 21370 ft | 409 kts | 146° |
| 2026-05-04 13:49 | 36.06372 | 128.07856 | 20890 ft | 406 kts | 146° |
| 2026-05-04 13:49 | 36.04035 | 128.09804 | 20444 ft | 403 kts | 146° |
| 2026-05-04 13:49 | 36.01743 | 128.11713 | 20018 ft | 399 kts | 146° |
| 2026-05-04 13:50 | 35.99446 | 128.13625 | 19574 ft | 396 kts | 146° |
| 2026-05-04 13:50 | 35.97161 | 128.15525 | 19139 ft | 393 kts | 146° |
| 2026-05-04 13:50 | 35.94897 | 128.17407 | 18756 ft | 389 kts | 145° |
| 2026-05-04 13:50 | 35.92688 | 128.19241 | 18686 ft | 376 kts | 145° |
| 2026-05-04 13:51 | 35.90573 | 128.20995 | 18617 ft | 364 kts | 145° |
| 2026-05-04 13:51 | 35.88500 | 128.22715 | 18535 ft | 353 kts | 145° |
| 2026-05-04 13:51 | 35.86486 | 128.24384 | 18451 ft | 342 kts | 145° |
| 2026-05-04 13:51 | 35.84534 | 128.26000 | 18371 ft | 332 kts | 145° |
| 2026-05-04 13:52 | 35.80810 | 128.29084 | 17974 ft | 320 kts | 145° |
| 2026-05-04 13:52 | 35.78957 | 128.30618 | 17582 ft | 321 kts | 145° |
| 2026-05-04 13:52 | 35.77102 | 128.32152 | 17251 ft | 320 kts | 145° |
| 2026-05-04 13:53 | 35.75257 | 128.33677 | 16945 ft | 318 kts | 145° |
| 2026-05-04 13:53 | 35.73426 | 128.35189 | 16652 ft | 316 kts | 145° |
| 2026-05-04 13:53 | 35.71600 | 128.36696 | 16317 ft | 315 kts | 145° |
| 2026-05-04 13:54 | 35.67966 | 128.39692 | 15697 ft | 313 kts | 145° |
| 2026-05-04 13:54 | 35.66159 | 128.41181 | 15398 ft | 312 kts | 145° |
| 2026-05-04 13:54 | 35.62581 | 128.44127 | 14795 ft | 310 kts | 145° |
| 2026-05-04 13:55 | 35.60790 | 128.45600 | 14499 ft | 309 kts | 146° |
| 2026-05-04 13:55 | 35.57222 | 128.48532 | 13925 ft | 307 kts | 146° |
| 2026-05-04 13:55 | 35.55466 | 128.49975 | 13602 ft | 306 kts | 146° |
| 2026-05-04 13:56 | 35.53692 | 128.51432 | 13290 ft | 305 kts | 146° |
| 2026-05-04 13:56 | 35.51929 | 128.52878 | 12989 ft | 304 kts | 146° |
| 2026-05-04 13:56 | 35.48402 | 128.55701 | 12391 ft | 302 kts | 153° |
| 2026-05-04 13:57 | 35.46442 | 128.56480 | 12062 ft | 300 kts | 178° |
| 2026-05-04 13:57 | 35.44363 | 128.56318 | 12058 ft | 302 kts | 189° |
| 2026-05-04 13:58 | 35.38216 | 128.55061 | 11983 ft | 287 kts | 191° |
| 2026-05-04 13:58 | 35.34370 | 128.54245 | 11995 ft | 277 kts | 192° |
| 2026-05-04 13:58 | 35.32447 | 128.53838 | 12010 ft | 283 kts | 191° |
| 2026-05-04 13:59 | 35.30513 | 128.53427 | 12016 ft | 286 kts | 191° |
| 2026-05-04 13:59 | 35.28548 | 128.53011 | 12001 ft | 285 kts | 192° |
| 2026-05-04 13:59 | 35.24647 | 128.52193 | 12000 ft | 282 kts | 192° |
| 2026-05-04 14:00 | 35.22736 | 128.51795 | 11996 ft | 282 kts | 192° |
| 2026-05-04 14:00 | 35.18867 | 128.50992 | 12012 ft | 281 kts | 192° |
| 2026-05-04 14:00 | 35.16937 | 128.50590 | 11999 ft | 282 kts | 192° |
| 2026-05-04 14:01 | 35.14999 | 128.50186 | 12014 ft | 282 kts | 192° |
| 2026-05-04 14:01 | 35.13085 | 128.49788 | 12010 ft | 282 kts | 190° |
| 2026-05-04 14:01 | 35.09363 | 128.51034 | 12020 ft | 286 kts | 144° |
| 2026-05-04 14:02 | 35.07772 | 128.52502 | 12012 ft | 287 kts | 142° |
| 2026-05-04 14:02 | 35.06196 | 128.54018 | 12009 ft | 288 kts | 142° |
| 2026-05-04 14:02 | 35.04620 | 128.55545 | 12012 ft | 289 kts | 142° |
| 2026-05-04 14:02 | 35.03062 | 128.57061 | 12011 ft | 290 kts | 142° |
| 2026-05-04 14:03 | 35.01484 | 128.58599 | 12013 ft | 291 kts | 142° |
| 2026-05-04 14:03 | 34.99910 | 128.60136 | 11954 ft | 288 kts | 142° |
| 2026-05-04 14:03 | 34.98350 | 128.61660 | 11745 ft | 285 kts | 142° |
| 2026-05-04 14:03 | 34.96796 | 128.63182 | 11414 ft | 286 kts | 142° |
| 2026-05-04 14:04 | 34.93693 | 128.66231 | 10829 ft | 287 kts | 142° |
| 2026-05-04 14:04 | 34.92142 | 128.67762 | 10565 ft | 286 kts | 142° |
| 2026-05-04 14:04 | 34.90595 | 128.69292 | 10304 ft | 286 kts | 142° |
| 2026-05-04 14:05 | 34.87509 | 128.72355 | 9776 ft | 284 kts | 142° |
| 2026-05-04 14:05 | 34.85981 | 128.73873 | 9536 ft | 282 kts | 142° |
| 2026-05-04 14:05 | 34.84465 | 128.75379 | 9284 ft | 280 kts | 142° |
| 2026-05-04 14:06 | 34.82981 | 128.76853 | 9030 ft | 278 kts | 142° |
| 2026-05-04 14:06 | 34.81485 | 128.78339 | 8783 ft | 276 kts | 142° |
| 2026-05-04 14:06 | 34.79999 | 128.79814 | 8527 ft | 274 kts | 142° |
| 2026-05-04 14:06 | 34.78680 | 128.81471 | 8239 ft | 273 kts | 120° |
| 2026-05-04 14:07 | 34.78118 | 128.83640 | 7991 ft | 269 kts | 90° |
| 2026-05-04 14:07 | 34.78457 | 128.85828 | 7729 ft | 263 kts | 61° |
| 2026-05-04 14:07 | 34.79599 | 128.87508 | 7446 ft | 257 kts | 37° |
| 2026-05-04 14:07 | 34.80949 | 128.88942 | 7159 ft | 257 kts | 31° |
| 2026-05-04 14:08 | 34.82529 | 128.89909 | 7033 ft | 253 kts | 20° |
| 2026-05-04 14:08 | 34.84210 | 128.90286 | 6798 ft | 248 kts | 352° |
| 2026-05-04 14:08 | 34.85822 | 128.89623 | 6481 ft | 245 kts | 328° |
| 2026-05-04 14:08 | 34.87269 | 128.88517 | 6162 ft | 246 kts | 325° |
| 2026-05-04 14:09 | 34.90013 | 128.86133 | 5635 ft | 244 kts | 320° |
| 2026-05-04 14:09 | 34.91278 | 128.84824 | 5368 ft | 244 kts | 319° |
| 2026-05-04 14:10 | 34.93828 | 128.82077 | 4795 ft | 245 kts | 317° |
| 2026-05-04 14:10 | 34.95068 | 128.80668 | 4577 ft | 242 kts | 317° |
| 2026-05-04 14:10 | 34.96279 | 128.79287 | 4342 ft | 240 kts | 317° |
| 2026-05-04 14:10 | 34.97499 | 128.77894 | 4113 ft | 239 kts | 318° |
| 2026-05-04 14:11 | 34.98766 | 128.76609 | 4015 ft | 233 kts | 334° |
| 2026-05-04 14:11 | 35.01751 | 128.76652 | 4033 ft | 219 kts | 26° |
| 2026-05-04 14:11 | 35.03018 | 128.77660 | 4009 ft | 215 kts | 36° |
| 2026-05-04 14:12 | 35.04180 | 128.78745 | 3898 ft | 208 kts | 37° |
| 2026-05-04 14:12 | 35.05297 | 128.79797 | 3793 ft | 197 kts | 36° |
| 2026-05-04 14:12 | 35.07440 | 128.81790 | 3241 ft | 192 kts | 36° |
| 2026-05-04 14:13 | 35.08503 | 128.82773 | 2929 ft | 190 kts | 35° |
| 2026-05-04 14:13 | 35.09532 | 128.83722 | 2786 ft | 180 kts | 34° |
| 2026-05-04 14:13 | 35.10489 | 128.84605 | 2612 ft | 171 kts | 34° |
| 2026-05-04 14:13 | 35.11469 | 128.85426 | 2327 ft | 166 kts | 29° |
| 2026-05-04 14:14 | 35.12423 | 128.86155 | 2102 ft | 156 kts | 29° |
| 2026-05-04 14:14 | 35.14189 | 128.87506 | 1745 ft | 150 kts | 29° |
| 2026-05-04 14:14 | 35.15075 | 128.88186 | 1734 ft | 150 kts | 29° |
| 2026-05-04 14:15 | 35.17009 | 128.88449 | 1721 ft | 149 kts | 349° |
| 2026-05-04 14:15 | 35.19005 | 128.88131 | 1233 ft | 140 kts | 360° |
| 2026-05-04 14:16 | 35.21045 | 128.88131 | 1210 ft | 151 kts | 15° |
| 2026-05-04 14:16 | 35.21814 | 128.88950 | 1034 ft | 150 kts | 69° |
| 2026-05-04 14:17 | 35.22030 | 128.91472 | 579 ft | 149 kts | 83° |
| 2026-05-04 14:17 | 35.21956 | 128.92740 | 535 ft | 151 kts | 121° |
| 2026-05-04 14:17 | 35.19975 | 128.93475 | 238 ft | 162 kts | 175° |
| 2026-05-04 14:18 | 35.18872 | 128.93581 | 50 ft | 155 kts | 172° |
| 2026-05-04 14:18 | 35.17250 | 128.93785 | 26 ft | 47 kts | 172° |
| 2026-05-04 14:19 | 35.16985 | 128.93989 | 22 ft | 19 kts | 122° |
| 2026-05-04 14:19 | 35.16969 | 128.94147 | 22 ft | 19 kts | 85° |
| 2026-05-04 14:19 | 35.16982 | 128.94302 | 25 ft | 18 kts | 83° |
| 2026-05-04 14:19 | 35.16996 | 128.94453 | 25 ft | 17 kts | 84° |
| 2026-05-04 14:20 | 35.16981 | 128.94578 | 22 ft | 13 kts | 112° |
| 2026-05-04 14:20 | 35.16950 | 128.94659 | 25 ft | 9 kts | 115° |
| 2026-05-04 14:20 | 35.16963 | 128.94721 | 23 ft | 8 kts | 36° |
| 2026-05-04 14:21 | 35.17008 | 128.94747 | 22 ft | 0 kts | 24° |